sensor_id;sensor_type;location;lat;lon;timestamp;pressure;altitude;pressure_sealevel;temperature;humidity
44001;BME280;29660;42.892;24.710;2022-07-17T13:21:39;97333.59;;;29.88;32.84
44001;BME280;29660;42.892;24.710;2022-07-17T13:26:42;97253.53;;;29.34;33.48
44001;BME280;29660;42.892;24.710;2022-07-17T13:31:46;97221.22;;;29.49;32.84
44001;BME280;29660;42.892;24.710;2022-07-17T13:36:54;97352.69;;;30.85;32.61
44001;BME280;29660;42.892;24.710;2022-07-17T13:41:56;97176.50;;;29.45;32.42
44001;BME280;29660;42.892;24.710;2022-07-17T13:46:58;97187.25;;;29.70;32.46
44001;BME280;29660;42.892;24.710;2022-07-17T13:52:00;97257.50;;;30.19;32.83
44001;BME280;29660;42.892;24.710;2022-07-17T13:57:02;97206.63;;;29.97;31.60
44001;BME280;29660;42.892;24.710;2022-07-17T14:02:07;97293.97;;;30.27;32.17
44001;BME280;29660;42.892;24.710;2022-07-17T14:07:09;97104.69;;;29.01;32.04
44001;BME280;29660;42.892;24.710;2022-07-17T14:12:11;97133.72;;;28.95;31.70
44001;BME280;29660;42.892;24.710;2022-07-17T14:17:13;97174.97;;;29.40;31.62
44001;BME280;29660;42.892;24.710;2022-07-17T14:22:15;97331.28;;;30.28;31.38
44001;BME280;29660;42.892;24.710;2022-07-17T14:27:17;97314.50;;;29.70;31.32
44001;BME280;29660;42.892;24.710;2022-07-17T14:32:19;97269.44;;;29.01;30.98
44001;BME280;29660;42.892;24.710;2022-07-17T14:37:21;97294.72;;;29.34;30.48
44001;BME280;29660;42.892;24.710;2022-07-17T14:42:24;97338.88;;;29.68;31.56
44001;BME280;29660;42.892;24.710;2022-07-17T14:47:26;97087.69;;;28.02;31.58
44001;BME280;29660;42.892;24.710;2022-07-17T14:52:28;97181.69;;;28.80;32.04
44001;BME280;29660;42.892;24.710;2022-07-17T14:57:30;97093.44;;;28.26;32.73
44001;BME280;29660;42.892;24.710;2022-07-17T15:02:32;97087.97;;;28.22;32.40
44001;BME280;29660;42.892;24.710;2022-07-17T15:07:34;97124.69;;;28.43;32.50
44001;BME280;29660;42.892;24.710;2022-07-17T15:12:36;97257.41;;;29.40;31.83
44001;BME280;29660;42.892;24.710;2022-07-17T15:17:38;97258.97;;;29.41;31.78
44001;BME280;29660;42.892;24.710;2022-07-17T15:22:40;97293.00;;;29.54;31.43
44001;BME280;29660;42.892;24.710;2022-07-17T15:27:42;97299.56;;;29.16;32.37
44001;BME280;29660;42.892;24.710;2022-07-17T15:32:44;97244.81;;;28.80;32.69
44001;BME280;29660;42.892;24.710;2022-07-17T15:37:46;97139.81;;;27.84;32.90
44001;BME280;29660;42.892;24.710;2022-07-17T15:42:49;97071.84;;;27.40;33.31
44001;BME280;29660;42.892;24.710;2022-07-17T15:47:51;97300.09;;;28.85;32.80
44001;BME280;29660;42.892;24.710;2022-07-17T15:52:53;97185.22;;;27.96;32.09
44001;BME280;29660;42.892;24.710;2022-07-17T15:57:55;97288.88;;;28.55;32.73
44001;BME280;29660;42.892;24.710;2022-07-17T16:02:59;97119.59;;;27.17;32.47
44001;BME280;29660;42.892;24.710;2022-07-17T16:08:01;97150.88;;;27.34;31.95
44001;BME280;29660;42.892;24.710;2022-07-17T16:13:03;97179.44;;;27.37;30.64
44001;BME280;29660;42.892;24.710;2022-07-17T16:18:05;97287.84;;;27.95;30.96
44001;BME280;29660;42.892;24.710;2022-07-17T16:23:07;97335.19;;;28.13;30.18
44001;BME280;29660;42.892;24.710;2022-07-17T16:28:09;97340.69;;;27.92;30.46
44001;BME280;29660;42.892;24.710;2022-07-17T16:33:11;97110.88;;;26.37;30.73
44001;BME280;29660;42.892;24.710;2022-07-17T16:38:14;97359.06;;;27.66;30.80
44001;BME280;29660;42.892;24.710;2022-07-17T16:43:16;97039.56;;;25.51;30.44
44001;BME280;29660;42.892;24.710;2022-07-17T16:48:19;97149.06;;;26.05;30.55
44001;BME280;29660;42.892;24.710;2022-07-17T16:53:21;97110.19;;;25.56;30.83
44001;BME280;29660;42.892;24.710;2022-07-17T16:58:23;97291.13;;;26.63;30.21
44001;BME280;29660;42.892;24.710;2022-07-17T17:03:25;97389.03;;;27.02;29.61
44001;BME280;29660;42.892;24.710;2022-07-17T17:08:27;97332.50;;;26.48;29.19
44001;BME280;29660;42.892;24.710;2022-07-17T17:13:29;97164.56;;;25.20;29.64
44001;BME280;29660;42.892;24.710;2022-07-17T17:18:31;97203.22;;;25.26;30.29
44001;BME280;29660;42.892;24.710;2022-07-17T17:23:33;97401.50;;;26.27;29.49
44001;BME280;29660;42.892;24.710;2022-07-17T17:28:36;97173.00;;;24.64;30.82
44001;BME280;29660;42.892;24.710;2022-07-17T17:33:38;97177.53;;;24.49;31.31
44001;BME280;29660;42.892;24.710;2022-07-17T17:38:41;97117.56;;;23.82;31.01
44001;BME280;29660;42.892;24.710;2022-07-17T17:43:43;97417.31;;;25.62;31.11
44001;BME280;29660;42.892;24.710;2022-07-17T17:48:45;97437.47;;;25.47;30.44
44001;BME280;29660;42.892;24.710;2022-07-17T17:53:47;97274.59;;;24.27;31.23
44001;BME280;29660;42.892;24.710;2022-07-17T17:58:49;97173.94;;;23.51;31.65
44001;BME280;29660;42.892;24.710;2022-07-17T18:03:51;97390.00;;;24.61;31.48
44001;BME280;29660;42.892;24.710;2022-07-17T18:08:53;97434.03;;;24.63;31.70
44001;BME280;29660;42.892;24.710;2022-07-17T18:13:56;97417.38;;;24.42;32.65
44001;BME280;29660;42.892;24.710;2022-07-17T18:18:58;97236.16;;;23.03;33.28
44001;BME280;29660;42.892;24.710;2022-07-17T18:24:00;97173.84;;;22.33;33.89
44001;BME280;29660;42.892;24.710;2022-07-17T18:29:02;97224.03;;;22.39;34.37
44001;BME280;29660;42.892;24.710;2022-07-17T18:34:04;97257.44;;;22.39;34.17
44001;BME280;29660;42.892;24.710;2022-07-17T18:39:06;97277.91;;;22.33;34.08
44001;BME280;29660;42.892;24.710;2022-07-17T18:44:10;97435.28;;;23.12;34.52
44001;BME280;29660;42.892;24.710;2022-07-17T18:49:12;97495.38;;;23.23;34.90
44001;BME280;29660;42.892;24.710;2022-07-17T18:54:14;97532.34;;;23.24;34.97
44001;BME280;29660;42.892;24.710;2022-07-17T18:59:16;97424.19;;;22.31;35.46
44001;BME280;29660;42.892;24.710;2022-07-17T19:04:19;97317.50;;;21.36;36.42
44001;BME280;29660;42.892;24.710;2022-07-17T19:09:20;97489.06;;;22.33;36.15
44001;BME280;29660;42.892;24.710;2022-07-17T19:14:24;97333.72;;;21.04;35.05
44001;BME280;29660;42.892;24.710;2022-07-17T19:19:27;97527.78;;;22.14;35.34
44001;BME280;29660;42.892;24.710;2022-07-17T19:24:29;97527.31;;;21.68;39.80
44001;BME280;29660;42.892;24.710;2022-07-17T19:29:31;97309.13;;;20.04;40.63
44001;BME280;29660;42.892;24.710;2022-07-17T19:34:33;97505.44;;;21.08;39.74
44001;BME280;29660;42.892;24.710;2022-07-17T19:39:35;97606.34;;;21.38;39.97
44001;BME280;29660;42.892;24.710;2022-07-17T19:44:37;97539.50;;;20.81;40.57
44001;BME280;29660;42.892;24.710;2022-07-17T19:49:40;97593.81;;;20.84;40.66
44001;BME280;29660;42.892;24.710;2022-07-17T19:54:42;97599.00;;;20.77;42.07
44001;BME280;29660;42.892;24.710;2022-07-17T19:59:44;97314.97;;;18.66;42.22
44001;BME280;29660;42.892;24.710;2022-07-17T20:04:46;97593.28;;;20.33;42.49
44001;BME280;29660;42.892;24.710;2022-07-17T20:09:48;97606.53;;;20.02;42.99
44001;BME280;29660;42.892;24.710;2022-07-17T20:14:50;97367.78;;;18.34;43.96
44001;BME280;29660;42.892;24.710;2022-07-17T20:19:52;97378.06;;;18.20;43.86
44001;BME280;29660;42.892;24.710;2022-07-17T20:24:57;97616.06;;;19.66;43.61
44001;BME280;29660;42.892;24.710;2022-07-17T20:29:59;97515.81;;;19.00;42.79
44001;BME280;29660;42.892;24.710;2022-07-17T20:35:01;97455.28;;;18.42;42.91
44001;BME280;29660;42.892;24.710;2022-07-17T20:40:04;97570.09;;;18.95;43.73
44001;BME280;29660;42.892;24.710;2022-07-17T20:45:06;97646.31;;;19.09;44.94
44001;BME280;29660;42.892;24.710;2022-07-17T20:50:09;97471.22;;;17.87;44.55
44001;BME280;29660;42.892;24.710;2022-07-17T20:55:11;97632.31;;;18.77;45.59
44001;BME280;29660;42.892;24.710;2022-07-17T21:00:14;97614.25;;;18.60;44.96
44001;BME280;29660;42.892;24.710;2022-07-17T21:05:16;97445.94;;;17.28;45.59
44001;BME280;29660;42.892;24.710;2022-07-17T21:10:18;97671.16;;;18.55;46.25
44001;BME280;29660;42.892;24.710;2022-07-17T21:15:20;97450.56;;;17.10;46.13
44001;BME280;29660;42.892;24.710;2022-07-17T21:20:22;97681.81;;;18.34;46.04
44001;BME280;29660;42.892;24.710;2022-07-17T21:25:24;97665.16;;;18.15;46.64
44001;BME280;29660;42.892;24.710;2022-07-17T21:30:26;97570.59;;;17.33;47.02
44001;BME280;29660;42.892;24.710;2022-07-17T21:35:28;97428.38;;;16.21;47.49
44001;BME280;29660;42.892;24.710;2022-07-17T21:40:31;97541.63;;;16.73;47.39
44001;BME280;29660;42.892;24.710;2022-07-17T21:45:33;97392.94;;;15.79;48.23
44001;BME280;29660;42.892;24.710;2022-07-17T21:50:35;97422.41;;;15.84;48.67
44001;BME280;29660;42.892;24.710;2022-07-17T21:55:37;97418.25;;;15.78;48.19
44001;BME280;29660;42.892;24.710;2022-07-17T22:00:39;97388.38;;;15.49;47.09
44001;BME280;29660;42.892;24.710;2022-07-17T22:05:41;97549.63;;;16.47;47.11
44001;BME280;29660;42.892;24.710;2022-07-17T22:10:43;97394.00;;;15.38;47.12
44001;BME280;29660;42.892;24.710;2022-07-17T22:15:45;97679.94;;;17.08;47.45
44001;BME280;29660;42.892;24.710;2022-07-17T22:20:47;97661.84;;;17.00;47.63
44001;BME280;29660;42.892;24.710;2022-07-17T22:25:50;97401.09;;;15.34;47.32
44001;BME280;29660;42.892;24.710;2022-07-17T22:30:52;97373.94;;;14.91;47.04
44001;BME280;29660;42.892;24.710;2022-07-17T22:35:56;97276.47;;;14.23;46.92
44001;BME280;29660;42.892;24.710;2022-07-17T22:40:58;97671.28;;;16.58;47.47
44001;BME280;29660;42.892;24.710;2022-07-17T22:46:00;97430.78;;;15.07;47.08
44001;BME280;29660;42.892;24.710;2022-07-17T22:51:03;97616.22;;;16.10;47.59
44001;BME280;29660;42.892;24.710;2022-07-17T22:56:05;97400.97;;;14.72;46.94
44001;BME280;29660;42.892;24.710;2022-07-17T23:01:07;97654.22;;;16.31;48.01
44001;BME280;29660;42.892;24.710;2022-07-17T23:06:09;97675.75;;;16.31;49.92
44001;BME280;29660;42.892;24.710;2022-07-17T23:11:17;97473.59;;;14.89;48.48
44001;BME280;29660;42.892;24.710;2022-07-17T23:16:21;97628.53;;;15.80;48.12
44001;BME280;29660;42.892;24.710;2022-07-17T23:21:23;97197.69;;;13.05;47.76
44001;BME280;29660;42.892;24.710;2022-07-17T23:26:26;97466.19;;;14.72;48.02
44001;BME280;29660;42.892;24.710;2022-07-17T23:31:28;97418.91;;;14.35;48.76
44001;BME280;29660;42.892;24.710;2022-07-17T23:36:30;97623.09;;;15.58;48.56
44001;BME280;29660;42.892;24.710;2022-07-17T23:41:32;97352.50;;;13.91;48.24
44001;BME280;29660;42.892;24.710;2022-07-17T23:46:34;97577.31;;;15.13;49.00
44001;BME280;29660;42.892;24.710;2022-07-17T23:51:36;97219.38;;;12.76;48.97
44001;BME280;29660;42.892;24.710;2022-07-17T23:56:38;97409.63;;;13.91;49.33
